RUNWAY INFORMATION
Runway Length Width Elevation Displaced
Threshold
Heading | Runway Length Width Elevation Displaced
Threshold
Heading
07 7897 ft 150 ft 6 ft 0 ft 76 | 25 7897 ft 150 ft 6 ft 0 ft 256

 AIRPORT FREQUENCIES
Type CTAF Name CTAF Frequency 123.6 MHZ
Type RDO Name MAJURO RDO Frequency 123.6 MHZ

 AIRPORT NEAR NAVIGATION AIDS
Type NDB-DME Name Majuro Frequency 316 KHZ

 METAR AND TAF INFORMATION
METAR FOR PKMJ
ADDS - METARS form results

(0118 UTC 15 May 2021)
Data provider http://aviationweather.gov/metar/data/
 
Forecast for: PKMJ (MAJURO WSO AIRPO, MH, US)
Text: PKMJ 142321Z 1500/1524 07016KT P6SM VCSH SCT016 SCT040 BKN120
Forecast period: 0000 UTC 15 May 2021 to 0000 UTC 16 May 2021
Forecast type: FROM: standard forecast or significant change
Winds: from the ENE (70 degrees) at 18 MPH (16 knots; 8.2 m/s)
Visibility: 6 or more miles (10+ km)
Ceiling: 12000 feet AGL
Clouds: scattered clouds at 1600 feet AGL
scattered clouds at 4000 feet AGL
broken clouds at 12000 feet AGL
Weather: VCSH  (showers in vicinity)
Text: TEMPO 1500/1504 4SM SHRA SCT014 BKN025
Forecast period: 0000 to 0400 UTC 15 May 2021
Forecast type: TEMPORARY: The following changes expected for less than half the time period
Visibility: 4 miles (6 km)
Ceiling: 2500 feet AGL
Clouds: scattered clouds at 1400 feet AGL
broken clouds at 2500 feet AGL
Weather: SHRA  (rain showers)



© 2013 - 2021, FlightSimLog.org - Powered by Virtual Airlines Manager